createdAt,value
2019-04-05T00:00:54.376Z,1.24
2019-04-05T00:03:22.834Z,1.11
2019-04-05T00:05:51.378Z,1.20
2019-04-05T00:08:19.834Z,1.20
2019-04-05T00:10:48.265Z,1.19
2019-04-05T00:13:16.808Z,1.21
2019-04-05T00:15:46.014Z,1.16
2019-04-05T00:18:14.460Z,1.16
2019-04-05T00:20:42.919Z,1.15
2019-04-05T00:23:11.449Z,1.13
2019-04-05T00:25:39.875Z,1.05
2019-04-05T00:28:08.337Z,1.03
2019-04-05T00:30:36.799Z,1.04
2019-04-05T00:33:05.319Z,1.02
2019-04-05T00:35:33.756Z,1.04
2019-04-05T00:38:02.230Z,1.06
2019-04-05T00:40:30.691Z,1.06
2019-04-05T00:42:59.217Z,1.03
2019-04-05T00:45:28.761Z,1.02
2019-04-05T00:47:58.534Z,0.99
2019-04-05T00:50:27.167Z,0.93
2019-04-05T00:52:55.587Z,0.91
2019-04-05T00:55:24.034Z,0.93
2019-04-05T00:57:52.773Z,0.95
2019-04-05T01:00:21.371Z,0.90
2019-04-05T01:02:49.823Z,0.85
2019-04-05T01:05:18.356Z,0.82
2019-04-05T01:07:46.862Z,0.81
2019-04-05T01:10:16.452Z,0.81
2019-04-05T01:12:46.389Z,0.79
2019-04-05T01:15:15.779Z,0.77
2019-04-05T01:17:44.298Z,0.75
2019-04-05T01:20:14.195Z,0.75
2019-04-05T01:22:44.477Z,0.73
2019-04-05T01:25:13.016Z,0.79
2019-04-05T01:27:41.899Z,0.80
2019-04-05T01:30:12.938Z,0.82
2019-04-05T01:32:41.469Z,0.84
2019-04-05T01:35:09.974Z,0.85
2019-04-05T01:37:38.646Z,0.88
2019-04-05T01:40:08.661Z,0.89
2019-04-05T01:42:38.271Z,0.88
2019-04-05T01:45:10.257Z,0.87
2019-04-05T01:47:38.955Z,0.79
2019-04-05T01:50:10.440Z,0.87
2019-04-05T01:52:40.031Z,0.89
2019-04-05T01:55:09.738Z,0.87
2019-04-05T01:57:38.204Z,0.80
2019-04-05T02:00:10.050Z,0.81
2019-04-05T02:02:38.664Z,0.84
2019-04-05T02:05:08.958Z,0.85
2019-04-05T02:07:38.241Z,0.83
2019-04-05T02:10:11.940Z,0.82
2019-04-05T02:12:40.832Z,0.85
2019-04-05T02:15:12.321Z,0.86
2019-04-05T02:17:40.912Z,0.97
2019-04-05T02:20:09.700Z,1.01
2019-04-05T02:22:38.303Z,1.02
2019-04-05T02:25:07.265Z,1.06
2019-04-05T02:27:35.860Z,1.04
2019-04-05T02:30:06.457Z,1.05
2019-04-05T02:32:35.037Z,1.03
2019-04-05T02:35:04.422Z,0.99
2019-04-05T02:37:32.969Z,0.96
2019-04-05T02:40:01.476Z,0.93
2019-04-05T02:42:30.585Z,0.89
2019-04-05T02:44:59.700Z,0.84
2019-04-05T02:47:28.600Z,0.81
2019-04-05T02:49:58.512Z,0.80
2019-04-05T02:52:28.119Z,0.84
2019-04-05T02:54:57.122Z,0.81
2019-04-05T02:57:27.333Z,0.71
2019-04-05T02:59:56.313Z,0.69
2019-04-05T03:02:25.501Z,0.68
2019-04-05T03:04:54.140Z,0.70
2019-04-05T03:07:22.720Z,0.72
2019-04-05T03:09:51.955Z,0.73
2019-04-05T03:12:21.232Z,0.77
2019-04-05T03:14:51.231Z,0.78
2019-04-05T03:17:21.443Z,0.79
2019-04-05T03:19:52.882Z,0.81
2019-04-05T03:22:23.471Z,0.87
2019-04-05T03:24:52.370Z,0.93
2019-04-05T03:27:23.868Z,0.96
2019-04-05T03:29:53.179Z,0.98
2019-04-05T03:32:22.476Z,0.97
2019-04-05T03:34:51.014Z,0.93
2019-04-05T03:37:19.734Z,0.93
2019-04-05T03:39:48.854Z,0.94
2019-04-05T03:42:17.457Z,0.94
2019-04-05T03:44:47.174Z,0.95
2019-04-05T03:47:16.397Z,0.98
2019-04-05T03:49:46.657Z,0.97
2019-04-05T03:52:15.190Z,0.98
2019-04-05T03:54:43.907Z,0.96
2019-04-05T03:57:12.510Z,1.00
2019-04-05T03:59:41.196Z,1.00
2019-04-05T04:02:10.110Z,1.00
2019-04-05T04:04:38.712Z,1.01
2019-04-05T04:07:07.507Z,1.03
2019-04-05T04:09:36.138Z,1.07
2019-04-05T04:12:05.122Z,1.07
2019-04-05T04:14:33.643Z,1.08
2019-04-05T04:17:12.165Z,1.24
2019-04-05T04:19:33.488Z,1.29
2019-04-05T04:22:20.014Z,1.36
2019-04-05T04:24:48.824Z,1.34
2019-04-05T04:27:17.826Z,1.41
2019-04-05T04:29:46.446Z,1.42
2019-04-05T04:32:15.371Z,1.29
2019-04-05T04:34:44.005Z,1.19
2019-04-05T04:37:12.635Z,1.17
2019-04-05T04:39:41.709Z,1.17
2019-04-05T04:42:11.104Z,1.15
2019-04-05T04:44:40.127Z,1.04
2019-04-05T04:47:08.750Z,1.11
2019-04-05T04:49:37.461Z,1.05
2019-04-05T04:52:06.377Z,0.96
2019-04-05T04:54:35.071Z,0.86
2019-04-05T04:57:03.684Z,0.83
2019-04-05T04:59:32.269Z,0.79
2019-04-05T05:02:00.818Z,0.68
2019-04-05T05:04:30.010Z,0.62
2019-04-05T05:06:58.536Z,0.58
2019-04-05T05:09:27.468Z,0.59
2019-04-05T05:11:56.097Z,0.58
2019-04-05T05:14:24.926Z,0.58
2019-04-05T05:16:53.465Z,0.58
2019-04-05T05:19:22.039Z,0.62
2019-04-05T05:21:50.588Z,0.62
2019-04-05T05:24:19.162Z,0.65
2019-04-05T05:26:47.807Z,0.68
2019-04-05T05:29:16.347Z,0.71
2019-04-05T05:31:44.805Z,0.68
2019-04-05T05:34:13.522Z,0.68
2019-04-05T05:36:42.198Z,0.68
2019-04-05T05:39:10.928Z,0.70
2019-04-05T05:41:39.484Z,0.70
2019-04-05T05:44:08.119Z,0.62
2019-04-05T05:46:36.579Z,0.50
2019-04-05T05:49:05.398Z,0.40
2019-04-05T05:51:33.824Z,0.31
2019-04-05T05:54:02.250Z,0.28
2019-04-05T05:56:30.700Z,0.27
2019-04-05T05:58:59.597Z,0.34
2019-04-05T06:01:28.554Z,0.40
2019-04-05T06:03:57.029Z,0.42
2019-04-05T06:06:25.484Z,0.50
2019-04-05T06:08:53.934Z,0.36
2019-04-05T06:11:22.388Z,0.28
2019-04-05T06:13:50.856Z,0.28
2019-04-05T06:16:19.425Z,0.37
2019-04-05T06:18:48.667Z,0.48
2019-04-05T06:21:17.392Z,0.54
2019-04-05T06:23:46.219Z,0.62
2019-04-05T06:26:14.658Z,0.69
2019-04-05T06:28:43.177Z,0.60
2019-04-05T06:31:11.755Z,0.56
2019-04-05T06:33:40.354Z,0.63
2019-04-05T06:36:08.894Z,0.67
2019-04-05T06:38:37.415Z,0.73
2019-04-05T06:41:05.875Z,0.74
2019-04-05T06:43:34.330Z,0.82
2019-04-05T06:46:03.023Z,0.81
2019-04-05T06:48:31.743Z,0.69
2019-04-05T06:51:00.253Z,0.68
2019-04-05T06:53:28.682Z,0.69
2019-04-05T06:55:59.544Z,0.73
2019-04-05T06:58:29.010Z,0.75
2019-04-05T07:00:57.872Z,0.68
2019-04-05T07:03:26.647Z,0.45
2019-04-05T07:05:55.122Z,0.49
2019-04-05T07:08:23.710Z,0.59
2019-04-05T07:10:52.171Z,0.69
2019-04-05T07:13:20.689Z,0.68
2019-04-05T07:15:49.196Z,0.64
2019-04-05T07:18:17.750Z,0.62
2019-04-05T07:20:46.263Z,0.54
2019-04-05T07:23:14.760Z,0.46
2019-04-05T07:25:43.271Z,0.51
2019-04-05T07:28:11.761Z,0.58
2019-04-05T07:30:40.250Z,0.71
2019-04-05T07:33:08.753Z,0.86
2019-04-05T07:35:37.577Z,1.00
2019-04-05T07:38:06.126Z,1.18
2019-04-05T07:40:34.706Z,1.20
2019-04-05T07:43:03.238Z,1.23
2019-04-05T07:45:31.719Z,1.31
2019-04-05T07:48:00.205Z,1.38
2019-04-05T07:50:28.709Z,1.40
2019-04-05T07:52:57.197Z,1.42
2019-04-05T07:55:25.691Z,1.36
2019-04-05T07:57:54.285Z,1.42
2019-04-05T08:00:41.274Z,1.47
2019-04-05T08:03:09.808Z,1.51
2019-04-05T08:05:38.539Z,1.63
2019-04-05T08:08:10.096Z,1.82
2019-04-05T08:10:38.929Z,2.28
2019-04-05T08:13:07.923Z,2.91
2019-04-05T08:15:36.398Z,3.59
2019-04-05T08:18:05.056Z,4.18
2019-04-05T08:20:33.552Z,4.76
2019-04-05T08:23:02.040Z,5.14
2019-04-05T08:25:30.537Z,5.19
2019-04-05T08:27:59.059Z,5.36
2019-04-05T08:30:27.574Z,5.37
2019-04-05T08:32:56.060Z,5.36
2019-04-05T08:35:24.546Z,5.92
2019-04-05T08:37:53.087Z,6.23
2019-04-05T08:40:21.838Z,6.43
2019-04-05T08:42:50.297Z,6.65
2019-04-05T08:45:18.952Z,6.84
2019-04-05T08:47:47.436Z,7.12
2019-04-05T08:50:16.082Z,7.19
2019-04-05T08:52:44.577Z,7.29
2019-04-05T08:55:13.124Z,7.13
2019-04-05T08:57:41.644Z,7.30
2019-04-05T09:00:11.667Z,7.43
2019-04-05T09:02:40.242Z,7.38
2019-04-05T09:05:08.865Z,7.07
2019-04-05T09:07:37.349Z,7.33
2019-04-05T09:10:07.086Z,7.16
2019-04-05T09:12:35.576Z,6.94
2019-04-05T09:15:05.609Z,7.17
2019-04-05T09:17:34.114Z,7.17
2019-04-05T09:20:02.606Z,7.44
2019-04-05T09:22:31.102Z,7.75
2019-04-05T09:24:59.610Z,7.82
2019-04-05T09:27:28.311Z,7.99
2019-04-05T09:29:56.758Z,7.97
2019-04-05T09:32:25.249Z,8.28
2019-04-05T09:34:53.808Z,8.33
2019-04-05T09:37:22.569Z,8.43
2019-04-05T09:39:51.199Z,8.50
2019-04-05T09:42:19.699Z,8.81
2019-04-05T09:44:48.176Z,9.02
2019-04-05T09:47:16.777Z,8.76
2019-04-05T09:49:45.288Z,8.98
2019-04-05T09:52:13.789Z,9.23
2019-04-05T09:54:42.300Z,9.47
2019-04-05T09:57:10.820Z,9.81
2019-04-05T09:59:39.337Z,9.98
2019-04-05T10:02:08.023Z,10.00
2019-04-05T10:04:36.640Z,10.19
2019-04-05T10:07:05.264Z,10.21
2019-04-05T10:09:33.769Z,10.32
2019-04-05T10:12:02.275Z,10.42
2019-04-05T10:14:35.880Z,10.35
2019-04-05T10:17:04.424Z,9.78
2019-04-05T10:19:32.923Z,9.29
2019-04-05T10:22:01.423Z,9.11
2019-04-05T10:24:32.933Z,9.09
2019-04-05T10:27:00.144Z,9.47
2019-04-05T10:29:28.681Z,9.40
2019-04-05T10:31:57.163Z,9.39
2019-04-05T10:34:25.659Z,9.29
2019-04-05T10:36:54.141Z,9.24
2019-04-05T10:39:22.669Z,9.41
2019-04-05T10:42:02.647Z,9.51
2019-04-05T10:44:21.556Z,9.58
2019-04-05T10:46:50.191Z,9.74
2019-04-05T10:49:18.691Z,9.97
2019-04-05T10:51:47.574Z,10.09
2019-04-05T10:54:16.032Z,9.90
2019-04-05T10:56:44.895Z,9.90
2019-04-05T10:59:13.461Z,9.97
2019-04-05T11:01:41.922Z,9.87
2019-04-05T11:04:10.794Z,10.19
2019-04-05T11:06:39.282Z,10.53
2019-04-05T11:09:08.582Z,10.60
2019-04-05T11:11:37.092Z,10.57
2019-04-05T11:14:13.733Z,10.41
2019-04-05T11:16:35.870Z,10.46
2019-04-05T11:19:04.553Z,10.59
2019-04-05T11:21:33.069Z,10.50
2019-04-05T11:24:01.592Z,10.40
2019-04-05T11:26:30.096Z,10.57
2019-04-05T11:28:58.945Z,10.63
2019-04-05T11:31:27.717Z,11.03
2019-04-05T11:33:56.303Z,11.32
2019-04-05T11:36:25.840Z,11.20
2019-04-05T11:38:54.597Z,11.06
2019-04-05T11:41:26.337Z,10.91
2019-04-05T11:44:00.381Z,10.97
2019-04-05T11:46:29.563Z,11.25
2019-04-05T11:48:59.184Z,11.28
2019-04-05T11:51:27.752Z,11.09
2019-04-05T11:53:56.271Z,11.01
2019-04-05T11:56:24.778Z,11.23
2019-04-05T11:58:53.281Z,11.30
2019-04-05T12:01:23.789Z,11.48
2019-04-05T12:03:52.398Z,10.86
2019-04-05T12:06:20.877Z,10.35
2019-04-05T12:08:49.647Z,10.04
2019-04-05T12:11:18.127Z,10.11
2019-04-05T12:13:47.750Z,10.26
2019-04-05T12:16:16.711Z,10.36
2019-04-05T12:18:45.163Z,10.81
2019-04-05T12:21:13.733Z,11.45
2019-04-05T12:23:42.606Z,11.58
2019-04-05T12:26:11.038Z,11.30
2019-04-05T12:28:39.541Z,10.79
2019-04-05T12:31:08.033Z,10.82
2019-04-05T12:33:36.530Z,11.12
2019-04-05T12:36:05.214Z,11.65
2019-04-05T12:38:34.269Z,11.38
2019-04-05T12:41:03.688Z,11.00
2019-04-05T12:43:32.443Z,10.96
2019-04-05T12:46:01.097Z,11.25
2019-04-05T12:48:30.056Z,10.95
2019-04-05T12:51:01.366Z,10.83
2019-04-05T12:53:28.999Z,11.01
2019-04-05T12:55:57.495Z,11.35
2019-04-05T12:58:26.774Z,11.95
2019-04-05T13:00:56.181Z,12.62
2019-04-05T13:03:25.869Z,12.84
2019-04-05T13:05:56.951Z,12.73
2019-04-05T13:08:24.591Z,12.22
2019-04-05T13:10:55.585Z,11.65
2019-04-05T13:13:26.433Z,11.92
2019-04-05T13:15:53.908Z,12.09
2019-04-05T13:18:25.168Z,12.39
2019-04-05T13:20:53.058Z,12.18
2019-04-05T13:23:21.529Z,12.15
2019-04-05T13:25:50.023Z,11.89
2019-04-05T13:28:18.946Z,12.24
2019-04-05T13:30:48.575Z,12.48
2019-04-05T13:33:17.955Z,12.86
2019-04-05T13:35:46.453Z,12.85
2019-04-05T13:38:14.947Z,12.09
2019-04-05T13:40:43.426Z,11.85
2019-04-05T13:43:11.935Z,11.95
2019-04-05T13:45:40.413Z,12.18
2019-04-05T13:48:09.683Z,12.31
2019-04-05T13:50:41.368Z,12.23
2019-04-05T13:53:11.143Z,12.40
2019-04-05T13:55:40.732Z,12.56
2019-04-05T13:58:11.170Z,12.66
2019-04-05T14:00:39.488Z,12.57
2019-04-05T14:03:08.299Z,12.50
2019-04-05T14:05:36.768Z,12.29
2019-04-05T14:08:10.345Z,11.96
2019-04-05T14:10:35.571Z,12.15
2019-04-05T14:13:04.596Z,12.35
2019-04-05T14:15:33.187Z,12.53
2019-04-05T14:18:01.714Z,12.26
2019-04-05T14:20:30.195Z,11.78
2019-04-05T14:22:58.700Z,11.80
2019-04-05T14:25:29.968Z,11.55
2019-04-05T14:27:57.423Z,11.06
2019-04-05T14:30:25.940Z,10.77
2019-04-05T14:32:55.741Z,10.48
2019-04-05T14:35:25.256Z,10.44
2019-04-05T14:37:54.593Z,10.27
2019-04-05T14:40:28.377Z,10.58
2019-04-05T14:42:55.090Z,10.81
2019-04-05T14:45:23.689Z,11.33
2019-04-05T14:47:52.183Z,11.22
2019-04-05T14:50:20.783Z,11.43
2019-04-05T14:52:49.715Z,11.54
2019-04-05T14:55:18.892Z,11.55
2019-04-05T14:57:47.426Z,11.35
2019-04-05T15:00:16.797Z,11.24
2019-04-05T15:02:45.667Z,11.07
2019-04-05T15:05:14.815Z,10.81
2019-04-05T15:07:43.304Z,10.52
2019-04-05T15:10:11.874Z,10.28
2019-04-05T15:12:40.392Z,10.11
2019-04-05T15:15:09.553Z,10.06
2019-04-05T15:17:47.673Z,9.99
2019-04-05T15:20:09.069Z,9.83
2019-04-05T15:22:41.508Z,9.87
2019-04-05T15:25:08.610Z,9.74
2019-04-05T15:27:37.182Z,9.68
2019-04-05T15:30:07.118Z,9.50
2019-04-05T15:32:37.295Z,8.78
2019-04-05T15:35:09.370Z,8.11
2019-04-05T15:37:38.093Z,7.90
2019-04-05T15:40:08.068Z,7.99
2019-04-05T15:42:36.554Z,8.01
2019-04-05T15:45:10.029Z,8.09
2019-04-05T15:47:38.794Z,8.06
2019-04-05T15:50:08.923Z,7.90
2019-04-05T15:52:37.403Z,7.86
2019-04-05T15:55:07.442Z,7.79
2019-04-05T15:57:39.199Z,7.66
2019-04-05T16:00:09.620Z,7.62
2019-04-05T16:02:38.170Z,7.71
2019-04-05T16:05:09.165Z,7.73
2019-04-05T16:07:37.704Z,7.66
2019-04-05T16:10:08.831Z,7.63
2019-04-05T16:12:37.376Z,7.71
2019-04-05T16:15:08.029Z,7.82
2019-04-05T16:17:36.584Z,7.78
2019-04-05T16:20:08.489Z,7.83
2019-04-05T16:22:36.968Z,7.59
2019-04-05T16:25:07.226Z,7.51
2019-04-05T16:27:35.761Z,7.35
2019-04-05T16:30:06.257Z,7.17
2019-04-05T16:32:34.724Z,7.06
2019-04-05T16:35:03.242Z,6.94
2019-04-05T16:37:31.704Z,7.05
2019-04-05T16:40:00.253Z,7.00
2019-04-05T16:42:28.744Z,6.79
2019-04-05T16:44:57.437Z,6.80
2019-04-05T16:47:25.992Z,6.77
2019-04-05T16:49:54.486Z,6.77
2019-04-05T16:52:22.973Z,6.66
2019-04-05T16:54:51.445Z,6.50
2019-04-05T16:57:19.939Z,6.37
2019-04-05T16:59:48.437Z,6.21
2019-04-05T17:02:16.904Z,6.13
2019-04-05T17:04:45.399Z,6.07
2019-04-05T17:07:13.877Z,6.00
2019-04-05T17:09:42.383Z,5.90
2019-04-05T17:12:10.883Z,5.85
2019-04-05T17:14:39.450Z,5.76
2019-04-05T17:17:07.922Z,5.66
2019-04-05T17:19:36.393Z,5.61
2019-04-05T17:22:04.946Z,5.58
2019-04-05T17:24:33.418Z,5.53
2019-04-05T17:27:01.890Z,5.41
2019-04-05T17:29:30.560Z,5.29
2019-04-05T17:31:59.103Z,5.27
2019-04-05T17:34:27.601Z,5.23
2019-04-05T17:36:56.131Z,5.16
2019-04-05T17:39:24.630Z,5.12
2019-04-05T17:41:53.109Z,5.02
2019-04-05T17:44:21.606Z,5.00
2019-04-05T17:46:50.094Z,4.97
2019-04-05T17:49:18.568Z,4.85
2019-04-05T17:51:47.396Z,4.74
2019-04-05T17:54:15.919Z,4.81
2019-04-05T17:56:44.574Z,4.81
2019-04-05T17:59:13.742Z,4.75
2019-04-05T18:01:42.224Z,4.70
2019-04-05T18:04:11.050Z,4.72
2019-04-05T18:06:39.545Z,4.66
2019-04-05T18:09:08.368Z,4.62
2019-04-05T18:11:37.265Z,4.56
2019-04-05T18:14:05.775Z,4.40
2019-04-05T18:16:34.359Z,4.39
2019-04-05T18:19:02.845Z,4.34
2019-04-05T18:21:31.339Z,4.31
2019-04-05T18:23:59.872Z,4.22
2019-04-05T18:26:28.331Z,4.19
2019-04-05T18:28:56.820Z,4.15
2019-04-05T18:31:25.340Z,4.20
2019-04-05T18:33:53.862Z,4.26
2019-04-05T18:36:22.364Z,4.23
2019-04-05T18:38:50.907Z,4.23
2019-04-05T18:41:19.402Z,4.12
2019-04-05T18:43:47.898Z,4.05
2019-04-05T18:46:16.439Z,4.01
2019-04-05T18:48:44.937Z,4.02
2019-04-05T18:51:13.505Z,3.98
2019-04-05T18:53:46.966Z,3.95
2019-04-05T18:56:16.330Z,3.91
2019-04-05T18:58:44.830Z,3.89
2019-04-05T19:01:13.336Z,3.88
2019-04-05T19:03:41.914Z,3.85
2019-04-05T19:06:10.475Z,3.78
2019-04-05T19:08:40.154Z,3.86
2019-04-05T19:11:08.876Z,3.86
2019-04-05T19:13:37.385Z,3.80
2019-04-05T19:16:06.054Z,3.77
2019-04-05T19:18:35.036Z,3.78
2019-04-05T19:21:03.806Z,3.76
2019-04-05T19:23:32.293Z,3.79
2019-04-05T19:26:00.807Z,3.82
2019-04-05T19:28:29.307Z,3.70
2019-04-05T19:50:57.867Z,3.50
2019-04-05T19:53:26.371Z,3.38
2019-04-05T19:55:54.871Z,3.33
2019-04-05T19:58:23.363Z,3.26
2019-04-05T20:00:51.868Z,3.23
2019-04-05T20:03:20.339Z,3.27
2019-04-05T20:05:48.879Z,3.29
2019-04-05T20:08:17.364Z,3.25
2019-04-05T20:10:46.020Z,3.18
2019-04-05T20:13:14.501Z,3.10
2019-04-05T20:15:43.141Z,3.01
2019-04-05T20:18:11.646Z,3.04
2019-04-05T20:20:40.143Z,2.99
2019-04-05T20:23:08.665Z,3.04
2019-04-05T20:25:37.172Z,3.03
2019-04-05T20:28:05.638Z,3.05
2019-04-05T20:30:34.152Z,3.06
2019-04-05T20:33:02.652Z,3.01
2019-04-05T20:35:31.208Z,2.97
2019-04-05T20:37:59.684Z,2.99
2019-04-05T20:40:28.276Z,3.00
2019-04-05T20:42:56.718Z,2.98
2019-04-05T20:45:25.229Z,3.02
2019-04-05T20:47:53.791Z,3.10
2019-04-05T20:50:22.343Z,3.12
2019-04-05T20:52:50.854Z,3.18
2019-04-05T20:55:19.340Z,3.25
2019-04-05T20:57:47.850Z,3.29
2019-04-05T21:00:16.943Z,3.27
2019-04-05T21:02:45.442Z,3.25
2019-04-05T21:05:20.632Z,3.21
2019-04-05T21:07:44.172Z,3.19
2019-04-05T21:10:12.790Z,3.07
2019-04-05T21:12:41.279Z,3.01
2019-04-05T21:15:09.860Z,3.02
2019-04-05T21:17:38.407Z,3.01
2019-04-05T21:20:07.544Z,2.88
2019-04-05T21:22:36.139Z,2.81
2019-04-05T21:25:06.266Z,2.86
2019-04-05T21:27:34.747Z,2.89
2019-04-05T21:30:03.435Z,2.93
2019-04-05T21:32:31.986Z,2.98
2019-04-05T21:35:00.454Z,3.03
2019-04-05T21:37:28.940Z,3.10
2019-04-05T21:39:57.520Z,3.13
2019-04-05T21:42:26.018Z,3.13
2019-04-05T21:44:54.575Z,3.11
2019-04-05T21:47:23.074Z,3.03
2019-04-05T21:49:51.577Z,2.91
2019-04-05T21:52:20.104Z,2.86
2019-04-05T21:54:48.625Z,2.82
2019-04-05T21:57:17.151Z,2.78
2019-04-05T21:59:45.666Z,2.77
2019-04-05T22:02:14.236Z,2.76
2019-04-05T22:04:42.750Z,2.72
2019-04-05T22:07:11.434Z,2.65
2019-04-05T22:09:39.916Z,2.61
2019-04-05T22:12:08.409Z,2.60
2019-04-05T22:14:36.926Z,2.59
2019-04-05T22:17:05.507Z,2.61
2019-04-05T22:19:34.007Z,2.55
2019-04-05T22:22:02.490Z,2.52
2019-04-05T22:24:31.018Z,2.54
2019-04-05T22:26:59.482Z,2.54
2019-04-05T22:29:27.981Z,2.50
2019-04-05T22:31:56.492Z,2.39
2019-04-05T22:34:25.041Z,2.37
2019-04-05T22:36:53.527Z,2.42
2019-04-05T22:39:22.041Z,2.37
2019-04-05T22:41:50.482Z,2.40
2019-04-05T22:44:18.972Z,2.43
2019-04-05T22:46:47.457Z,2.43
2019-04-05T22:49:15.958Z,2.44
2019-04-05T22:51:44.439Z,2.46
2019-04-05T22:54:28.145Z,2.41
2019-04-05T22:56:56.718Z,2.34
2019-04-05T22:59:25.237Z,2.21
2019-04-05T23:01:53.741Z,2.23
2019-04-05T23:04:22.258Z,2.17
2019-04-05T23:06:50.780Z,2.12
2019-04-05T23:09:19.275Z,2.08
2019-04-05T23:11:47.757Z,2.08
2019-04-05T23:14:47.511Z,2.09
2019-04-05T23:17:16.041Z,2.15
2019-04-05T23:19:44.498Z,2.20
2019-04-05T23:22:12.999Z,2.23
2019-04-05T23:24:41.536Z,2.23
2019-04-05T23:27:10.073Z,2.20
2019-04-05T23:29:38.584Z,2.18
2019-04-05T23:32:07.094Z,2.08
2019-04-05T23:34:35.658Z,2.15
2019-04-05T23:37:04.132Z,2.16
2019-04-05T23:39:32.659Z,2.15
2019-04-05T23:42:01.324Z,2.13
2019-04-05T23:44:29.841Z,2.08
2019-04-05T23:46:58.355Z,2.01
2019-04-05T23:49:26.832Z,1.96
2019-04-05T23:51:55.308Z,1.97
2019-04-05T23:54:23.819Z,1.98
2019-04-05T23:56:52.391Z,1.99
2019-04-05T23:59:20.841Z,1.98
